sensor_id;sensor_type;location;lat;lon;timestamp;pressure;altitude;pressure_sealevel;temperature;humidity
44144;BME280;43510;51.920;4.492;2022-09-28T00:01:33;67126.81;;;11.46;100.00
44144;BME280;43510;51.920;4.492;2022-09-28T00:03:59;67129.44;;;11.46;100.00
44144;BME280;43510;51.920;4.492;2022-09-28T00:06:27;67128.88;;;11.45;100.00
44144;BME280;43510;51.920;4.492;2022-09-28T00:08:53;67124.97;;;11.42;100.00
44144;BME280;43510;51.920;4.492;2022-09-28T00:11:20;67124.56;;;11.44;100.00
44144;BME280;43510;51.920;4.492;2022-09-28T00:13:51;67124.03;;;11.43;100.00
44144;BME280;43510;51.920;4.492;2022-09-28T00:16:19;67121.78;;;11.41;100.00
44144;BME280;43510;51.920;4.492;2022-09-28T00:18:45;67122.00;;;11.37;100.00
44144;BME280;43510;51.920;4.492;2022-09-28T00:21:15;67116.78;;;11.37;100.00
44144;BME280;43510;51.920;4.492;2022-09-28T00:23:42;67113.97;;;11.34;100.00
44144;BME280;43510;51.920;4.492;2022-09-28T00:26:27;67110.22;;;11.33;100.00
44144;BME280;43510;51.920;4.492;2022-09-28T00:28:54;67112.69;;;11.31;100.00
44144;BME280;43510;51.920;4.492;2022-09-28T00:31:20;67112.28;;;11.33;100.00
44144;BME280;43510;51.920;4.492;2022-09-28T00:33:53;67118.44;;;11.38;100.00
44144;BME280;43510;51.920;4.492;2022-09-28T00:36:22;67112.69;;;11.31;100.00
44144;BME280;43510;51.920;4.492;2022-09-28T00:38:48;67113.81;;;11.32;100.00
44144;BME280;43510;51.920;4.492;2022-09-28T00:41:14;67114.53;;;11.35;100.00
44144;BME280;43510;51.920;4.492;2022-09-28T00:43:40;67113.41;;;11.34;100.00
44144;BME280;43510;51.920;4.492;2022-09-28T00:48:53;67117.16;;;11.35;100.00
44144;BME280;43510;51.920;4.492;2022-09-28T00:51:22;67115.09;;;11.35;100.00
44144;BME280;43510;51.920;4.492;2022-09-28T00:53:49;67122.34;;;11.42;100.00
44144;BME280;43510;51.920;4.492;2022-09-28T00:56:17;67122.72;;;11.40;100.00
44144;BME280;43510;51.920;4.492;2022-09-28T00:58:47;67122.91;;;11.42;100.00
44144;BME280;43510;51.920;4.492;2022-09-28T01:01:14;67129.19;;;11.51;100.00
44144;BME280;43510;51.920;4.492;2022-09-28T01:03:40;67137.59;;;11.58;100.00
44144;BME280;43510;51.920;4.492;2022-09-28T01:06:10;67146.53;;;11.66;100.00
44144;BME280;43510;51.920;4.492;2022-09-28T01:08:39;67162.25;;;11.73;100.00
44144;BME280;43510;51.920;4.492;2022-09-28T01:11:05;67160.88;;;11.77;100.00
44144;BME280;43510;51.920;4.492;2022-09-28T01:13:31;67158.09;;;11.74;100.00
44144;BME280;43510;51.920;4.492;2022-09-28T01:16:25;67157.53;;;11.74;100.00
44144;BME280;43510;51.920;4.492;2022-09-28T01:24:42;67127.38;;;11.46;100.00
44144;BME280;43510;51.920;4.492;2022-09-28T01:27:32;67129.59;;;11.49;100.00
44144;BME280;43510;51.920;4.492;2022-09-28T01:30:14;67123.84;;;11.41;100.00
44144;BME280;43510;51.920;4.492;2022-09-28T01:33:14;67113.41;;;11.34;100.00
44144;BME280;43510;51.920;4.492;2022-09-28T01:35:50;67105.44;;;11.24;100.00
44144;BME280;43510;51.920;4.492;2022-09-28T01:38:21;67089.97;;;11.13;100.00
44144;BME280;43510;51.920;4.492;2022-09-28T01:40:50;67086.63;;;11.10;100.00
44144;BME280;43510;51.920;4.492;2022-09-28T01:43:19;67094.28;;;11.14;100.00
44144;BME280;43510;51.920;4.492;2022-09-28T01:45:51;67095.22;;;11.13;100.00
44144;BME280;43510;51.920;4.492;2022-09-28T01:48:35;67097.06;;;11.17;100.00
44144;BME280;43510;51.920;4.492;2022-09-28T01:51:10;67087.03;;;11.08;100.00
44144;BME280;43510;51.920;4.492;2022-09-28T01:53:42;67083.28;;;11.07;100.00
44144;BME280;43510;51.920;4.492;2022-09-28T01:56:21;67089.25;;;11.10;100.00
44144;BME280;43510;51.920;4.492;2022-09-28T01:59:34;67089.97;;;11.13;100.00
44144;BME280;43510;51.920;4.492;2022-09-28T02:01:46;67093.31;;;11.16;100.00
44144;BME280;43510;51.920;4.492;2022-09-28T02:04:16;67093.31;;;11.16;100.00
44144;BME280;43510;51.920;4.492;2022-09-28T02:06:46;67104.50;;;11.26;100.00
44144;BME280;43510;51.920;4.492;2022-09-28T02:09:22;67108.22;;;11.27;100.00
44144;BME280;43510;51.920;4.492;2022-09-28T02:11:53;67109.91;;;11.28;100.00
44144;BME280;43510;51.920;4.492;2022-09-28T02:14:21;67104.50;;;11.26;100.00
44144;BME280;43510;51.920;4.492;2022-09-28T02:16:52;67113.97;;;11.34;100.00
44144;BME280;43510;51.920;4.492;2022-09-28T02:19:25;67115.31;;;11.31;100.00
44144;BME280;43510;51.920;4.492;2022-09-28T02:21:56;67114.19;;;11.30;100.00
44144;BME280;43510;51.920;4.492;2022-09-28T02:24:41;67113.41;;;11.34;100.00
44144;BME280;43510;51.920;4.492;2022-09-28T02:27:20;67113.81;;;11.32;100.00
44144;BME280;43510;51.920;4.492;2022-09-28T02:29:49;67110.47;;;11.29;100.00
44144;BME280;43510;51.920;4.492;2022-09-28T02:32:15;67106.72;;;11.28;100.00
44144;BME280;43510;51.920;4.492;2022-09-28T02:34:43;67103.94;;;11.25;100.00
44144;BME280;43510;51.920;4.492;2022-09-28T02:37:09;67104.66;;;11.28;100.00
44144;BME280;43510;51.920;4.492;2022-09-28T02:39:34;67109.34;;;11.28;100.00
44144;BME280;43510;51.920;4.492;2022-09-28T02:42:11;67122.91;;;11.42;100.00
44144;BME280;43510;51.920;4.492;2022-09-28T02:47:36;67137.44;;;11.56;100.00
44144;BME280;43510;51.920;4.492;2022-09-28T02:50:34;67150.66;;;11.65;100.00
44144;BME280;43510;51.920;4.492;2022-09-28T02:53:26;67147.69;;;11.60;100.00
44144;BME280;43510;51.920;4.492;2022-09-28T02:56:09;67153.84;;;11.66;100.00
44144;BME280;43510;51.920;4.492;2022-09-28T02:58:56;67151.22;;;11.66;100.00
44144;BME280;43510;51.920;4.492;2022-09-28T03:04:20;67148.75;;;11.68;100.00
44144;BME280;43510;51.920;4.492;2022-09-28T03:07:00;67151.38;;;11.68;100.00
44144;BME280;43510;51.920;4.492;2022-09-28T03:09:32;67152.47;;;11.69;100.00
44144;BME280;43510;51.920;4.492;2022-09-28T03:12:06;67156.22;;;11.70;100.00
44144;BME280;43510;51.920;4.492;2022-09-28T03:14:32;67193.50;;;12.02;100.00
44144;BME280;43510;51.920;4.492;2022-09-28T03:16:58;67169.25;;;11.84;100.00
44144;BME280;43510;51.920;4.492;2022-09-28T03:19:28;67167.59;;;11.83;100.00
44144;BME280;43510;51.920;4.492;2022-09-28T03:21:54;67155.63;;;11.77;100.00
44144;BME280;43510;51.920;4.492;2022-09-28T03:24:20;67161.44;;;11.77;100.00
44144;BME280;43510;51.920;4.492;2022-09-28T03:26:45;67159.63;;;11.73;100.00
44144;BME280;43510;51.920;4.492;2022-09-28T03:29:11;67153.03;;;11.70;100.00
44144;BME280;43510;51.920;4.492;2022-09-28T03:31:36;67148.81;;;11.61;100.00
44144;BME280;43510;51.920;4.492;2022-09-28T03:34:02;67139.66;;;11.58;100.00
44144;BME280;43510;51.920;4.492;2022-09-28T03:36:27;67137.97;;;11.56;100.00
44144;BME280;43510;51.920;4.492;2022-09-28T03:38:53;67136.31;;;11.55;100.00
44144;BME280;43510;51.920;4.492;2022-09-28T03:41:25;67130.72;;;11.50;100.00
44144;BME280;43510;51.920;4.492;2022-09-28T03:43:53;67124.03;;;11.43;100.00
44144;BME280;43510;51.920;4.492;2022-09-28T03:46:19;67124.56;;;11.44;100.00
44144;BME280;43510;51.920;4.492;2022-09-28T03:48:44;67118.44;;;11.38;100.00
44144;BME280;43510;51.920;4.492;2022-09-28T03:51:10;67119.53;;;11.39;100.00
44144;BME280;43510;51.920;4.492;2022-09-28T03:53:36;67120.09;;;11.40;100.00
44144;BME280;43510;51.920;4.492;2022-09-28T03:56:04;67119.72;;;11.42;100.00
44144;BME280;43510;51.920;4.492;2022-09-28T03:58:30;67137.25;;;11.53;100.00
44144;BME280;43510;51.920;4.492;2022-09-28T04:01:00;67142.44;;;11.60;100.00
44144;BME280;43510;51.920;4.492;2022-09-28T04:03:27;67149.16;;;11.66;100.00
44144;BME280;43510;51.920;4.492;2022-09-28T04:05:52;67148.34;;;11.70;100.00
44144;BME280;43510;51.920;4.492;2022-09-28T04:08:18;67162.94;;;11.76;100.00
44144;BME280;43510;51.920;4.492;2022-09-28T04:10:44;67157.53;;;11.74;100.00
44144;BME280;43510;51.920;4.492;2022-09-28T04:13:09;67149.16;;;11.66;100.00
44144;BME280;43510;51.920;4.492;2022-09-28T04:15:35;67139.09;;;11.57;100.00
44144;BME280;43510;51.920;4.492;2022-09-28T04:18:03;67139.88;;;11.53;100.00
44144;BME280;43510;51.920;4.492;2022-09-28T04:20:28;67141.00;;;11.54;100.00
44144;BME280;43510;51.920;4.492;2022-09-28T04:22:54;67141.72;;;11.57;100.00
44144;BME280;43510;51.920;4.492;2022-09-28T04:25:19;67140.75;;;11.59;100.00
44144;BME280;43510;51.920;4.492;2022-09-28T04:27:45;67144.13;;;11.62;100.00
44144;BME280;43510;51.920;4.492;2022-09-28T04:30:28;67147.28;;;11.62;100.00
44144;BME280;43510;51.920;4.492;2022-09-28T04:32:54;67140.19;;;11.58;100.00
44144;BME280;43510;51.920;4.492;2022-09-28T04:35:19;67126.44;;;11.48;100.00
44144;BME280;43510;51.920;4.492;2022-09-28T04:37:45;67124.03;;;11.43;100.00
44144;BME280;43510;51.920;4.492;2022-09-28T04:40:10;67124.97;;;11.42;100.00
44144;BME280;43510;51.920;4.492;2022-09-28T04:42:36;67125.69;;;11.45;100.00
44144;BME280;43510;51.920;4.492;2022-09-28T04:45:01;67114.47;;;11.42;100.00
44144;BME280;43510;51.920;4.492;2022-09-28T04:47:29;67118.44;;;11.38;100.00
44144;BME280;43510;51.920;4.492;2022-09-28T04:49:55;67113.41;;;11.34;100.00
44144;BME280;43510;51.920;4.492;2022-09-28T04:52:20;67109.34;;;11.28;100.00
44144;BME280;43510;51.920;4.492;2022-09-28T04:54:45;67110.28;;;11.26;100.00
44144;BME280;43510;51.920;4.492;2022-09-28T04:57:11;67098.34;;;11.20;100.00
44144;BME280;43510;51.920;4.492;2022-09-28T04:59:36;67100.56;;;11.22;100.00
44144;BME280;43510;51.920;4.492;2022-09-28T05:02:03;67101.53;;;11.21;100.00
44144;BME280;43510;51.920;4.492;2022-09-28T05:04:28;67088.06;;;11.16;100.00
44144;BME280;43510;51.920;4.492;2022-09-28T05:06:55;67088.31;;;11.11;100.00
44144;BME280;43510;51.920;4.492;2022-09-28T05:09:21;67082.34;;;11.08;100.00
44144;BME280;43510;51.920;4.492;2022-09-28T05:11:50;67095.78;;;11.13;100.00
44144;BME280;43510;51.920;4.492;2022-09-28T05:14:18;67091.66;;;11.14;100.00
44144;BME280;43510;51.920;4.492;2022-09-28T05:16:46;67092.38;;;11.17;100.00
44144;BME280;43510;51.920;4.492;2022-09-28T05:19:11;67097.63;;;11.17;100.00
44144;BME280;43510;51.920;4.492;2022-09-28T05:21:37;67098.91;;;11.21;100.00
44144;BME280;43510;51.920;4.492;2022-09-28T05:24:02;67095.56;;;11.18;100.00
44144;BME280;43510;51.920;4.492;2022-09-28T05:26:32;67106.38;;;11.23;100.00
44144;BME280;43510;51.920;4.492;2022-09-28T05:28:57;67104.09;;;11.28;100.00
44144;BME280;43510;51.920;4.492;2022-09-28T05:31:23;67113.25;;;11.31;100.00
44144;BME280;43510;51.920;4.492;2022-09-28T05:33:48;67111.19;;;11.32;100.00
44144;BME280;43510;51.920;4.492;2022-09-28T05:36:13;67116.03;;;11.34;100.00
44144;BME280;43510;51.920;4.492;2022-09-28T05:38:39;67126.81;;;11.46;100.00
44144;BME280;43510;51.920;4.492;2022-09-28T05:41:04;67132.06;;;11.46;100.00
44144;BME280;43510;51.920;4.492;2022-09-28T05:43:31;67129.44;;;11.46;100.00
44144;BME280;43510;51.920;4.492;2022-09-28T05:45:58;67146.56;;;11.59;100.00
44144;BME280;43510;51.920;4.492;2022-09-28T05:48:24;67141.31;;;11.59;100.00
44144;BME280;43510;51.920;4.492;2022-09-28T05:50:52;67144.66;;;11.62;100.00
44144;BME280;43510;51.920;4.492;2022-09-28T05:53:18;67152.84;;;11.74;100.00
44144;BME280;43510;51.920;4.492;2022-09-28T05:55:43;67157.53;;;11.74;100.00
44144;BME280;43510;51.920;4.492;2022-09-28T05:58:09;67168.16;;;11.83;100.00
44144;BME280;43510;51.920;4.492;2022-09-28T06:00:35;67164.63;;;11.78;100.00
44144;BME280;43510;51.920;4.492;2022-09-28T06:03:05;67139.25;;;11.60;100.00
44144;BME280;43510;51.920;4.492;2022-09-28T06:05:33;67143.56;;;11.61;100.00
44144;BME280;43510;51.920;4.492;2022-09-28T06:08:00;67142.69;;;11.56;100.00
44144;BME280;43510;51.920;4.492;2022-09-28T06:10:27;67124.19;;;11.46;100.00
44144;BME280;43510;51.920;4.492;2022-09-28T06:12:53;67130.16;;;11.49;100.00
44144;BME280;43510;51.920;4.492;2022-09-28T06:15:20;67121.78;;;11.41;100.00
44144;BME280;43510;51.920;4.492;2022-09-28T06:17:46;67128.50;;;11.48;100.00
44144;BME280;43510;51.920;4.492;2022-09-28T06:20:11;67124.41;;;11.41;100.00
44144;BME280;43510;51.920;4.492;2022-09-28T06:22:37;67113.41;;;11.34;100.00
44144;BME280;43510;51.920;4.492;2022-09-28T06:25:04;67110.06;;;11.31;100.00
44144;BME280;43510;51.920;4.492;2022-09-28T06:27:30;67107.28;;;11.28;100.00
44144;BME280;43510;51.920;4.492;2022-09-28T06:29:55;67117.88;;;11.38;100.00
44144;BME280;43510;51.920;4.492;2022-09-28T06:32:20;67127.94;;;11.47;100.00
44144;BME280;43510;51.920;4.492;2022-09-28T06:34:46;67162.38;;;11.76;100.00
44144;BME280;43510;51.920;4.492;2022-09-28T06:37:11;67194.94;;;12.08;100.00
44144;BME280;43510;51.920;4.492;2022-09-28T06:39:36;67234.84;;;12.39;100.00
44144;BME280;43510;51.920;4.492;2022-09-28T06:42:02;67274.28;;;12.80;100.00
44144;BME280;43510;51.920;4.492;2022-09-28T06:44:28;67310.06;;;13.12;100.00
44144;BME280;43510;51.920;4.492;2022-09-28T06:46:54;67333.94;;;13.31;100.00
44144;BME280;43510;51.920;4.492;2022-09-28T06:49:22;67342.50;;;13.41;100.00
44144;BME280;43510;51.920;4.492;2022-09-28T06:51:48;67360.97;;;13.58;100.00
44144;BME280;43510;51.920;4.492;2022-09-28T06:54:14;67368.22;;;13.65;100.00
44144;BME280;43510;51.920;4.492;2022-09-28T06:56:39;67367.66;;;13.64;100.00
44144;BME280;43510;51.920;4.492;2022-09-28T06:59:05;67361.50;;;13.59;100.00
44144;BME280;43510;51.920;4.492;2022-09-28T07:01:30;67351.63;;;13.52;100.00
44144;BME280;43510;51.920;4.492;2022-09-28T07:03:55;67358.16;;;13.56;100.00
44144;BME280;43510;51.920;4.492;2022-09-28T07:06:22;67377.72;;;13.73;100.00
44144;BME280;43510;51.920;4.492;2022-09-28T07:08:48;67416.50;;;14.11;100.00
44144;BME280;43510;51.920;4.492;2022-09-28T07:11:14;67476.78;;;14.63;100.00
44144;BME280;43510;51.920;4.492;2022-09-28T07:13:39;67507.56;;;14.91;100.00
44144;BME280;43510;51.920;4.492;2022-09-28T07:16:05;67506.84;;;14.88;100.00
44144;BME280;43510;51.920;4.492;2022-09-28T07:18:31;67480.13;;;14.66;100.00
44144;BME280;43510;51.920;4.492;2022-09-28T07:20:57;67439.41;;;14.31;100.00
44144;BME280;43510;51.920;4.492;2022-09-28T07:23:23;67406.09;;;13.97;100.00
44144;BME280;43510;51.920;4.492;2022-09-28T07:25:52;67364.13;;;13.59;100.00
44144;BME280;43510;51.920;4.492;2022-09-28T07:28:17;67334.13;;;13.34;100.00
44144;BME280;43510;51.920;4.492;2022-09-28T07:30:44;67309.88;;;13.09;100.00
44144;BME280;43510;51.920;4.492;2022-09-28T07:33:10;67298.47;;;13.04;100.00
44144;BME280;43510;51.920;4.492;2022-09-28T07:35:37;67300.75;;;12.99;100.00
44144;BME280;43510;51.920;4.492;2022-09-28T07:38:04;67296.81;;;13.02;100.00
44144;BME280;43510;51.920;4.492;2022-09-28T07:40:31;67308.91;;;13.11;100.00
44144;BME280;43510;51.920;4.492;2022-09-28T07:43:16;67326.44;;;13.29;100.00
44144;BME280;43510;51.920;4.492;2022-09-28T07:45:49;67352.72;;;13.53;100.00
44144;BME280;43510;51.920;4.492;2022-09-28T07:48:15;67400.44;;;13.99;100.00
44144;BME280;43510;51.920;4.492;2022-09-28T07:50:52;67463.91;;;14.51;100.00
44144;BME280;43510;51.920;4.492;2022-09-28T07:53:18;67523.78;;;15.05;100.00
44144;BME280;43510;51.920;4.492;2022-09-28T07:55:55;67587.25;;;15.65;100.00
44144;BME280;43510;51.920;4.492;2022-09-28T07:58:21;67626.31;;;15.98;97.44
44144;BME280;43510;51.920;4.492;2022-09-28T08:00:48;67641.75;;;16.17;95.65
44144;BME280;43510;51.920;4.492;2022-09-28T08:03:18;67646.16;;;16.11;94.87
44144;BME280;43510;51.920;4.492;2022-09-28T08:05:44;67610.78;;;15.86;94.96
44144;BME280;43510;51.920;4.492;2022-09-28T08:08:11;67576.47;;;15.53;96.33
44144;BME280;43510;51.920;4.492;2022-09-28T08:10:36;67549.00;;;15.28;97.72
44144;BME280;43510;51.920;4.492;2022-09-28T08:13:03;67513.31;;;14.98;98.63
44144;BME280;43510;51.920;4.492;2022-09-28T08:15:31;67489.66;;;14.75;99.28
44144;BME280;43510;51.920;4.492;2022-09-28T08:18:05;67494.13;;;14.79;99.87
44144;BME280;43510;51.920;4.492;2022-09-28T08:20:32;67540.19;;;15.23;98.31
44144;BME280;43510;51.920;4.492;2022-09-28T08:23:16;67610.78;;;15.86;95.93
44144;BME280;43510;51.920;4.492;2022-09-28T08:25:49;67651.13;;;16.23;94.63
44144;BME280;43510;51.920;4.492;2022-09-28T08:28:16;67704.22;;;16.68;93.57
44144;BME280;43510;51.920;4.492;2022-09-28T08:30:42;67721.06;;;16.84;91.76
44144;BME280;43510;51.920;4.492;2022-09-28T08:33:10;67712.09;;;16.76;91.32
44144;BME280;43510;51.920;4.492;2022-09-28T08:35:35;67703.13;;;16.67;90.95
44144;BME280;43510;51.920;4.492;2022-09-28T08:38:00;67696.41;;;16.61;90.97
44144;BME280;43510;51.920;4.492;2022-09-28T08:40:28;67705.34;;;16.69;91.63
44144;BME280;43510;51.920;4.492;2022-09-28T08:43:01;67712.25;;;16.78;91.62
44144;BME280;43510;51.920;4.492;2022-09-28T08:45:31;67744.47;;;17.02;90.58
44144;BME280;43510;51.920;4.492;2022-09-28T08:50:56;67856.81;;;18.06;87.80
44144;BME280;43510;51.920;4.492;2022-09-28T08:53:39;67900.63;;;18.46;83.53
44144;BME280;43510;51.920;4.492;2022-09-28T08:56:14;67930.38;;;18.72;79.94
44144;BME280;43510;51.920;4.492;2022-09-28T08:58:44;67945.41;;;18.84;77.60
44144;BME280;43510;51.920;4.492;2022-09-28T09:01:16;67941.63;;;18.83;75.83
44144;BME280;43510;51.920;4.492;2022-09-28T09:03:44;67938.25;;;18.80;75.10
44144;BME280;43510;51.920;4.492;2022-09-28T09:06:25;67924.22;;;18.67;74.47
44144;BME280;43510;51.920;4.492;2022-09-28T09:09:12;67910.34;;;18.57;75.59
44144;BME280;43510;51.920;4.492;2022-09-28T09:20:24;67782.75;;;17.39;78.28
44144;BME280;43510;51.920;4.492;2022-09-28T09:23:00;67760.72;;;17.17;79.75
44144;BME280;43510;51.920;4.492;2022-09-28T09:25:41;67760.72;;;17.17;79.12
44144;BME280;43510;51.920;4.492;2022-09-28T09:37:01;67773.78;;;17.31;78.83
44144;BME280;43510;51.920;4.492;2022-09-28T09:43:16;67816.41;;;17.70;76.90
44144;BME280;43510;51.920;4.492;2022-09-28T09:46:10;67812.50;;;17.66;76.54
44144;BME280;43510;51.920;4.492;2022-09-28T09:51:35;67778.81;;;17.36;77.62
44144;BME280;43510;51.920;4.492;2022-09-28T09:54:08;67790.91;;;17.51;77.41
44144;BME280;43510;51.920;4.492;2022-09-28T09:56:47;67818.66;;;17.72;77.71
44144;BME280;43510;51.920;4.492;2022-09-28T09:59:18;67828.94;;;17.83;76.73
44144;BME280;43510;51.920;4.492;2022-09-28T10:01:50;67864.13;;;18.13;75.61
44144;BME280;43510;51.920;4.492;2022-09-28T10:04:25;67907.94;;;18.52;75.42
44144;BME280;43510;51.920;4.492;2022-09-28T10:06:56;67905.66;;;18.50;73.46
44144;BME280;43510;51.920;4.492;2022-09-28T10:09:25;67874.25;;;18.22;73.76
44144;BME280;43510;51.920;4.492;2022-09-28T10:11:52;67850.91;;;17.96;73.71
44144;BME280;43510;51.920;4.492;2022-09-28T10:14:23;67874.63;;;18.20;74.85
44144;BME280;43510;51.920;4.492;2022-09-28T10:16:51;67921.41;;;18.64;73.71
44144;BME280;43510;51.920;4.492;2022-09-28T10:19:20;67961.69;;;18.98;71.62
44144;BME280;43510;51.920;4.492;2022-09-28T10:21:49;67969.31;;;19.10;70.70
44144;BME280;43510;51.920;4.492;2022-09-28T10:26:54;67981.91;;;19.16;68.61
44144;BME280;43510;51.920;4.492;2022-09-28T10:29:25;67979.81;;;19.17;69.04
44144;BME280;43510;51.920;4.492;2022-09-28T10:31:52;67970.84;;;19.09;69.05
44144;BME280;43510;51.920;4.492;2022-09-28T10:34:25;67988.97;;;19.28;69.11
44144;BME280;43510;51.920;4.492;2022-09-28T10:36:54;68008.47;;;19.43;67.98
44144;BME280;43510;51.920;4.492;2022-09-28T10:42:26;67990.50;;;19.27;67.85
44144;BME280;43510;51.920;4.492;2022-09-28T10:44:59;67997.22;;;19.33;67.51
44144;BME280;43510;51.920;4.492;2022-09-28T10:47:28;68021.84;;;19.52;67.32
44144;BME280;43510;51.920;4.492;2022-09-28T10:49:57;68041.06;;;19.72;66.71
44144;BME280;43510;51.920;4.492;2022-09-28T10:52:30;68061.88;;;19.91;66.14
44144;BME280;43510;51.920;4.492;2022-09-28T10:54:56;68080.00;;;20.10;65.62
44144;BME280;43510;51.920;4.492;2022-09-28T10:57:32;68077.06;;;20.05;65.90
44144;BME280;43510;51.920;4.492;2022-09-28T10:59:58;68043.63;;;19.79;65.71
44144;BME280;43510;51.920;4.492;2022-09-28T11:02:30;68013.56;;;19.47;67.43
44144;BME280;43510;51.920;4.492;2022-09-28T11:04:58;67978.13;;;19.15;68.39
44144;BME280;43510;51.920;4.492;2022-09-28T11:07:28;67944.44;;;18.85;69.14
44144;BME280;43510;51.920;4.492;2022-09-28T11:09:59;67916.34;;;18.60;69.96
44144;BME280;43510;51.920;4.492;2022-09-28T11:12:41;67904.81;;;18.45;70.96
44144;BME280;43510;51.920;4.492;2022-09-28T11:15:18;67884.91;;;18.31;71.46
44144;BME280;43510;51.920;4.492;2022-09-28T11:17:44;67872.38;;;18.18;71.87
44144;BME280;43510;51.920;4.492;2022-09-28T11:20:28;67859.06;;;18.08;72.02
44144;BME280;43510;51.920;4.492;2022-09-28T11:22:55;67840.72;;;17.94;72.00
44144;BME280;43510;51.920;4.492;2022-09-28T11:25:27;67832.00;;;17.81;72.31
44144;BME280;43510;51.920;4.492;2022-09-28T11:33:13;67781.47;;;17.36;74.77
44144;BME280;43510;51.920;4.492;2022-09-28T11:38:29;67818.28;;;17.74;75.33
44144;BME280;43510;51.920;4.492;2022-09-28T11:41:15;67813.63;;;17.67;75.61
44144;BME280;43510;51.920;4.492;2022-09-28T11:44:09;67798.44;;;17.53;76.17
44144;BME280;43510;51.920;4.492;2022-09-28T11:46:54;67772.25;;;17.32;76.25
44144;BME280;43510;51.920;4.492;2022-09-28T11:49:30;67753.59;;;17.13;75.71
44144;BME280;43510;51.920;4.492;2022-09-28T11:52:02;67766.47;;;17.25;75.07
44144;BME280;43510;51.920;4.492;2022-09-28T11:54:37;67806.63;;;17.66;72.91
44144;BME280;43510;51.920;4.492;2022-09-28T11:57:10;67843.34;;;17.94;70.54
44144;BME280;43510;51.920;4.492;2022-09-28T11:59:51;67867.50;;;18.16;70.26
44144;BME280;43510;51.920;4.492;2022-09-28T12:02:24;67895.56;;;18.41;70.83
44144;BME280;43510;51.920;4.492;2022-09-28T12:05:00;67917.47;;;18.61;70.90
44144;BME280;43510;51.920;4.492;2022-09-28T12:07:41;67932.09;;;18.74;70.07
44144;BME280;43510;51.920;4.492;2022-09-28T12:12:57;67926.47;;;18.69;69.58
44144;BME280;43510;51.920;4.492;2022-09-28T12:18:21;67919.56;;;18.60;66.47
44144;BME280;43510;51.920;4.492;2022-09-28T12:20:53;67905.44;;;18.55;65.86
44144;BME280;43510;51.920;4.492;2022-09-28T12:23:30;67904.28;;;18.54;66.35
44144;BME280;43510;51.920;4.492;2022-09-28T12:26:01;67913.00;;;18.57;66.88
44144;BME280;43510;51.920;4.492;2022-09-28T12:28:38;67910.00;;;18.52;68.96
44144;BME280;43510;51.920;4.492;2022-09-28T12:31:16;67906.94;;;18.54;70.67
44144;BME280;43510;51.920;4.492;2022-09-28T12:33:47;67886.31;;;18.38;71.26
44144;BME280;43510;51.920;4.492;2022-09-28T12:36:58;67892.75;;;18.39;72.89
44144;BME280;43510;51.920;4.492;2022-09-28T12:42:38;67890.09;;;18.39;72.63
44144;BME280;43510;51.920;4.492;2022-09-28T12:45:13;67892.75;;;18.39;72.44
44144;BME280;43510;51.920;4.492;2022-09-28T12:59:42;67914.13;;;18.58;69.21
44144;BME280;43510;51.920;4.492;2022-09-28T13:02:36;67916.34;;;18.60;68.51
44144;BME280;43510;51.920;4.492;2022-09-28T13:11:46;67993.31;;;19.29;66.40
44144;BME280;43510;51.920;4.492;2022-09-28T13:17:33;68005.09;;;19.40;65.29
44144;BME280;43510;51.920;4.492;2022-09-28T13:20:26;68000.63;;;19.36;65.29
44144;BME280;43510;51.920;4.492;2022-09-28T13:23:18;67999.06;;;19.37;65.83
44144;BME280;43510;51.920;4.492;2022-09-28T13:25:50;67990.50;;;19.27;65.96
44144;BME280;43510;51.920;4.492;2022-09-28T13:28:17;67969.88;;;19.10;65.67
44144;BME280;43510;51.920;4.492;2022-09-28T13:30:45;67965.06;;;19.01;66.60
44144;BME280;43510;51.920;4.492;2022-09-28T13:33:36;67968.44;;;19.04;68.53
44144;BME280;43510;51.920;4.492;2022-09-28T13:38:56;67943.31;;;18.84;71.11
44144;BME280;43510;51.920;4.492;2022-09-28T13:41:30;67886.44;;;18.30;73.64
44144;BME280;43510;51.920;4.492;2022-09-28T13:46:45;67785.41;;;17.39;77.96
44144;BME280;43510;51.920;4.492;2022-09-28T13:52:27;67760.72;;;17.17;82.54
44144;BME280;43510;51.920;4.492;2022-09-28T13:57:59;67779.69;;;17.41;82.19
44144;BME280;43510;51.920;4.492;2022-09-28T14:03:22;67807.47;;;17.62;77.64
44144;BME280;43510;51.920;4.492;2022-09-28T14:13:59;67842.66;;;17.91;75.25
44144;BME280;43510;51.920;4.492;2022-09-28T14:16:29;67846.72;;;17.97;74.37
44144;BME280;43510;51.920;4.492;2022-09-28T14:30:24;67800.69;;;17.55;71.72
44144;BME280;43510;51.920;4.492;2022-09-28T14:32:56;67787.81;;;17.44;72.60
44144;BME280;43510;51.920;4.492;2022-09-28T14:35:39;67775.59;;;17.35;72.62
44144;BME280;43510;51.920;4.492;2022-09-28T14:38:15;67746.28;;;17.06;73.04
44144;BME280;43510;51.920;4.492;2022-09-28T14:41:34;67717.16;;;16.80;73.18
44144;BME280;43510;51.920;4.492;2022-09-28T14:46:27;67659.38;;;16.28;74.62
44144;BME280;43510;51.920;4.492;2022-09-28T14:54:05;67608.94;;;15.82;77.47
44144;BME280;43510;51.920;4.492;2022-09-28T14:59:06;67584.31;;;15.60;78.20
44144;BME280;43510;51.920;4.492;2022-09-28T15:01:34;67581.19;;;15.52;78.19
44144;BME280;43510;51.920;4.492;2022-09-28T15:04:03;67576.47;;;15.53;78.39
44144;BME280;43510;51.920;4.492;2022-09-28T15:06:44;67588.47;;;15.59;78.93
44144;BME280;43510;51.920;4.492;2022-09-28T15:09:30;67576.47;;;15.53;79.35
44144;BME280;43510;51.920;4.492;2022-09-28T15:12:25;67568.75;;;15.48;80.11
44144;BME280;43510;51.920;4.492;2022-09-28T15:15:00;67564.69;;;15.42;80.19
44144;BME280;43510;51.920;4.492;2022-09-28T15:17:31;67562.25;;;15.38;81.48
44144;BME280;43510;51.920;4.492;2022-09-28T15:22:25;67538.69;;;15.24;82.11
44144;BME280;43510;51.920;4.492;2022-09-28T15:24:56;67548.81;;;15.26;83.24
44144;BME280;43510;51.920;4.492;2022-09-28T15:27:22;67548.44;;;15.28;83.74